Airfield :
LOGIN :

Register | Disclaimer

   EN    FR    IT 

 










Legend :    VFR   Marginal VFR   IFR   Intensive IFR   Very Intensive IFR
Visi :
Ceiling :
>= 8 km
>= 3000ft
5 to 8 km
1000 to 3000 ft
1500m to 5 km
500 to 1000 ft
800 to 1500m
200 to 500 ft
< 800m
< 200 ft
Symbols :   Thunderstorms  Fog  Heavy snow  Heavy precipitations  Wind > 20 kt
SIGMETs :     Misc.  Thunderstorms  Icing  Turbulence  Mountain Waves  Volcanic Ashes






- Airport Elevation : 306 ft
- IATA code : EMA


EGNX - Nottingham East Midlands

CURRENT METAR :
  • 270150Z VRB01KT 9999 BKN046 17/14 Q1008

EXPIRED METARs :
  • 270120Z VRB03KT 9999 FEW012 BKN047 16/14 Q1008 RETSRA
  • 270050Z 29008KT 7000 TSRA FEW013 BKN042CB 15/14 Q1008 RETSRA RESHRA
  • 270020Z 30008KT CAVOK 17/13 Q1008
  • 262350Z 30007KT CAVOK 18/14 Q1008
  • 262320Z 28008KT CAVOK 19/14 Q1008

TAF AMD TAF EGNX
Valid from the 27 at 00:00 until the 28 at 00:00 UTC


270055Z 2700/2724 26005KT 9999 SCT040
TEMPO 2700/2702 6000 TSRA
PROB30
TEMPO 2703/2712 7000 SHRA
TEMPO 2712/2718 7000 SHRA
PROB30
TEMPO 2712/2721 VRB15G25KT 4000 +SHRAGS
BECMG 2715/2718 19010KT
ATIS : +44 1332 852 852 (ext 3201)



MET'MAP, your aeronautical weather chart ! - Copyright ORBIFLY December 2007 - Disclaimer

ORBIFLY MET'MAP TEAM :

Programming & Development : Alexandra Zaïnal
Concept & original design : Baudouin d'Aumeries
Assistance for programming : Marc-Olivier Méhu
Technical & hardware support : Manuel Goepfert

Contact : metmap@orbifly.com




SOURCES & CREDITS :

   NOAA